Time;durP1;ratioP1;P1;durP2;ratioP2;P2;SDS_P1;SDS_P2;PMS_P1;PMS_P2;Temp;Humidity;BMP_temperature;BMP_pressure;BME280_temperature;BME280_humidity;BME280_pressure;Samples;Min_cycle;Max_cycle;Signal;HPM_P1;HPM_P2
2022/08/04 00:01:02;;;;;;;4.28;1.50;;;21.50;92.90;;;;;;5056525;28;20033;-77
2022/08/04 00:03:39;;;;;;;3.75;1.50;;;21.50;92.80;;;;;;5061900;28;20100;-74
2022/08/04 00:06:19;;;;;;;3.90;1.58;;;21.60;92.70;;;;;;5054271;28;20107;-74
2022/08/04 00:08:59;;;;;;;4.20;1.42;;;21.60;92.60;;;;;;5055393;28;20479;-75
2022/08/04 00:11:28;;;;;;;3.22;1.30;;;21.60;92.60;;;;;;5054324;28;20095;-75
2022/08/04 00:14:07;;;;;;;3.90;1.45;;;21.60;92.60;;;;;;5055219;28;20450;-75
2022/08/04 00:16:36;;;;;;;2.15;1.23;;;21.60;92.60;;;;;;5041534;28;20729;-75
2022/08/04 00:19:10;;;;;;;3.88;1.30;;;21.60;92.60;;;;;;5053706;28;20013;-76
2022/08/04 00:21:40;;;;;;;3.03;1.50;;;21.60;92.70;;;;;;5038883;28;20025;-75
2022/08/04 00:24:07;;;;;;;2.42;1.30;;;21.50;92.70;;;;;;5055277;28;20144;-75
2022/08/04 00:26:33;;;;;;;3.03;1.33;;;21.50;92.70;;;;;;5053683;28;20177;-74
2022/08/04 00:28:59;;;;;;;3.38;1.30;;;21.50;92.80;;;;;;5059830;28;20055;-75
2022/08/04 00:31:26;;;;;;;3.50;1.35;;;21.50;92.80;;;;;;5057082;28;20061;-74
2022/08/04 00:33:52;;;;;;;4.07;1.50;;;21.50;92.80;;;;;;5056092;28;20027;-75
2022/08/04 00:36:18;;;;;;;4.30;1.40;;;21.50;92.80;;;;;;5053534;28;20017;-74
2022/08/04 00:38:44;;;;;;;3.45;1.30;;;21.50;92.80;;;;;;5044492;28;20051;-74
2022/08/04 00:41:24;;;;;;;3.38;1.50;;;21.50;92.80;;;;;;5054840;28;20029;-75
2022/08/04 00:44:24;;;;;;;4.00;1.80;;;21.50;92.80;;;;;;5053596;28;20028;-75
2022/08/04 00:47:26;;;;;;;5.35;1.70;;;21.50;92.90;;;;;;5046703;28;20119;-75
2022/08/04 00:50:07;;;;;;;3.08;1.25;;;21.50;92.90;;;;;;5015505;28;20397;-74
2022/08/04 00:53:04;;;;;;;3.97;1.50;;;21.50;92.80;;;;;;5033042;28;20508;-75
2022/08/04 00:55:56;;;;;;;2.90;1.33;;;21.60;92.70;;;;;;5036989;28;20064;-74
2022/08/04 00:58:33;;;;;;;3.08;1.50;;;21.60;92.70;;;;;;5034562;28;20017;-75
2022/08/04 01:01:05;;;;;;;3.05;1.40;;;21.60;92.70;;;;;;5051349;28;20122;-75
2022/08/04 01:04:10;;;;;;;3.17;1.48;;;21.60;92.70;;;;;;5051004;28;20553;-75
2022/08/04 01:06:49;;;;;;;3.72;1.50;;;21.60;92.70;;;;;;5049921;28;20543;-75
2022/08/04 01:09:52;;;;;;;2.65;1.20;;;21.50;92.90;;;;;;5052193;28;20473;-75
2022/08/04 01:12:56;;;;;;;2.70;1.40;;;21.50;92.70;;;;;;5026305;28;20044;-75
2022/08/04 01:15:51;;;;;;;2.92;1.30;;;21.50;92.80;;;;;;5056587;28;20382;-75
2022/08/04 01:18:26;;;;;;;3.45;1.30;;;21.50;92.80;;;;;;5062920;28;20059;-75
2022/08/04 01:21:22;;;;;;;4.30;1.40;;;21.50;92.80;;;;;;5052271;28;20543;-74
2022/08/04 01:24:28;;;;;;;3.22;1.40;;;21.50;93.10;;;;;;5046445;28;20071;-74
2022/08/04 01:27:05;;;;;;;3.80;1.40;;;21.50;92.80;;;;;;5047409;28;20029;-75
2022/08/04 01:29:39;;;;;;;3.20;1.33;;;21.50;92.90;;;;;;5035589;28;20154;-73
2022/08/04 01:32:23;;;;;;;4.63;1.40;;;21.50;92.90;;;;;;5041768;28;20060;-75
2022/08/04 01:34:59;;;;;;;3.35;1.30;;;21.50;92.90;;;;;;5056931;28;20100;-75
2022/08/04 01:37:53;;;;;;;3.30;1.40;;;21.50;92.90;;;;;;5053757;28;20532;-75
2022/08/04 01:40:20;;;;;;;2.58;1.38;;;21.50;92.80;;;;;;5033910;28;20460;-74
2022/08/04 01:42:51;;;;;;;3.47;1.10;;;21.50;92.80;;;;;;5045625;28;20101;-75
2022/08/04 01:45:17;;;;;;;2.92;1.50;;;21.60;92.70;;;;;;5052704;28;20033;-75
2022/08/04 01:47:49;;;;;;;3.05;1.35;;;21.60;92.70;;;;;;5052081;28;20025;-76
2022/08/04 01:50:15;;;;;;;4.30;1.50;;;21.60;92.70;;;;;;5049008;28;20025;-74
2022/08/04 01:52:42;;;;;;;3.53;1.20;;;21.60;92.70;;;;;;5052115;28;20047;-74
2022/08/04 01:55:10;;;;;;;2.40;1.27;;;21.50;92.70;;;;;;5048426;28;20029;-74
2022/08/04 01:57:41;;;;;;;3.70;1.40;;;21.50;92.70;;;;;;5014134;28;20398;-75
2022/08/04 02:00:07;;;;;;;2.75;1.25;;;21.50;92.70;;;;;;5051148;28;20056;-74
2022/08/04 02:02:33;;;;;;;4.63;1.38;;;21.50;92.80;;;;;;5052244;28;20060;-74
2022/08/04 02:04:58;;;;;;;3.33;1.60;;;21.50;92.80;;;;;;5051916;28;20053;-74
2022/08/04 02:07:45;;;;;;;3.75;1.60;;;21.40;92.80;;;;;;5059401;28;20063;-74
2022/08/04 02:10:26;;;;;;;2.95;1.17;;;21.50;92.90;;;;;;5051494;28;20079;-75
2022/08/04 02:13:24;;;;;;;3.05;1.33;;;21.50;92.90;;;;;;5051551;28;20025;-75
2022/08/04 02:16:13;;;;;;;3.97;1.50;;;21.50;92.90;;;;;;5037059;28;20025;-75
2022/08/04 02:19:08;;;;;;;3.13;1.38;;;21.40;92.80;;;;;;5033523;28;20028;-75
2022/08/04 02:21:34;;;;;;;3.17;1.30;;;21.40;92.90;;;;;;5051221;28;20033;-75
2022/08/04 02:24:06;;;;;;;2.95;1.33;;;21.40;92.90;;;;;;5051748;28;20033;-74
2022/08/04 02:26:33;;;;;;;3.22;1.20;;;21.40;92.90;;;;;;5034817;28;20061;-74
2022/08/04 02:29:18;;;;;;;2.92;1.20;;;21.50;92.80;;;;;;5056588;28;20025;-75
2022/08/04 02:32:01;;;;;;;2.38;1.20;;;21.50;92.80;;;;;;5057092;28;20099;-74
2022/08/04 02:34:50;;;;;;;3.67;1.40;;;21.50;92.70;;;;;;5051419;28;20108;-74
2022/08/04 02:37:16;;;;;;;3.65;1.45;;;21.60;92.70;;;;;;5036950;28;20026;-74
2022/08/04 02:39:44;;;;;;;3.28;1.67;;;21.50;92.70;;;;;;5050683;28;20017;-75
2022/08/04 02:42:11;;;;;;;2.63;1.20;;;21.50;92.70;;;;;;5051242;28;20404;-75
2022/08/04 02:44:38;;;;;;;2.35;1.10;;;21.50;92.70;;;;;;5050813;28;20060;-75
2022/08/04 02:47:05;;;;;;;2.75;1.42;;;21.50;92.70;;;;;;5055533;28;20033;-74
2022/08/04 02:49:35;;;;;;;3.53;1.35;;;21.50;92.80;;;;;;5050261;28;20463;-73
2022/08/04 02:52:01;;;;;;;2.67;1.30;;;21.50;92.80;;;;;;5050965;28;20021;-74
2022/08/04 02:54:33;;;;;;;3.28;1.33;;;21.50;92.80;;;;;;5051137;28;20051;-75
2022/08/04 02:57:00;;;;;;;2.33;1.30;;;21.50;92.90;;;;;;5051134;28;20494;-75
2022/08/04 02:59:35;;;;;;;3.83;1.42;;;21.40;92.90;;;;;;5051070;28;20037;-74
2022/08/04 03:02:01;;;;;;;3.08;1.20;;;21.40;92.90;;;;;;5032905;28;20040;-75
2022/08/04 03:04:50;;;;;;;3.47;1.40;;;21.40;92.90;;;;;;5051102;28;20107;-75
2022/08/04 03:07:33;;;;;;;3.47;1.50;;;21.40;92.90;;;;;;5051008;28;20029;-76
2022/08/04 03:10:25;;;;;;;2.40;1.20;;;21.40;92.90;;;;;;5050661;28;20028;-75
2022/08/04 03:13:23;;;;;;;3.10;1.40;;;21.50;92.90;;;;;;5050691;28;20025;-75
2022/08/04 03:16:15;;;;;;;2.67;1.23;;;21.40;92.90;;;;;;5045373;28;20013;-75
2022/08/04 03:19:17;;;;;;;3.30;1.45;;;21.50;92.90;;;;;;5020310;28;20409;-74
2022/08/04 03:21:58;;;;;;;1.80;1.10;;;21.50;92.80;;;;;;5050304;28;20032;-75
2022/08/04 03:24:48;;;;;;;3.83;1.40;;;21.50;92.70;;;;;;5051159;28;20025;-75
2022/08/04 03:27:49;;;;;;;1.83;1.13;;;21.50;92.70;;;;;;5035828;28;20047;-75
2022/08/04 03:30:38;;;;;;;5.13;1.50;;;21.50;92.70;;;;;;5049185;28;20036;-75
2022/08/04 03:33:32;;;;;;;3.08;1.20;;;21.50;92.70;;;;;;5038426;28;20063;-75
2022/08/04 03:36:29;;;;;;;2.75;1.35;;;21.50;92.80;;;;;;5045703;28;20040;-75
2022/08/04 03:39:21;;;;;;;3.47;1.55;;;21.50;92.80;;;;;;5012721;28;20033;-75
2022/08/04 03:42:02;;;;;;;3.35;1.30;;;21.50;92.80;;;;;;5032578;28;20032;-74
2022/08/04 03:44:46;;;;;;;2.88;1.23;;;21.50;92.80;;;;;;5034985;28;20123;-74
2022/08/04 03:47:35;;;;;;;3.55;1.38;;;21.40;92.90;;;;;;5054741;28;20025;-75
2022/08/04 03:50:12;;;;;;;2.42;1.23;;;21.50;92.90;;;;;;5050101;28;20021;-75
2022/08/04 03:53:09;;;;;;;3.33;1.30;;;21.40;92.90;;;;;;5032805;28;20551;-75
2022/08/04 03:55:43;;;;;;;4.38;1.38;;;21.40;92.90;;;;;;5032411;28;20040;-74
2022/08/04 03:58:38;;;;;;;2.35;1.27;;;21.40;92.90;;;;;;5055405;28;20052;-74
2022/08/04 04:01:58;;;;;;;2.92;1.30;;;21.40;92.90;;;;;;5054021;28;20025;-75
2022/08/04 04:04:51;;;;;;;3.67;1.30;;;21.40;92.90;;;;;;5052865;28;20032;-75
2022/08/04 04:07:55;;;;;;;2.38;1.15;;;21.50;92.90;;;;;;5036540;28;20024;-74
2022/08/04 04:10:20;;;;;;;3.33;1.30;;;21.50;92.80;;;;;;5053758;28;20029;-74
2022/08/04 04:13:10;;;;;;;2.63;1.30;;;21.50;92.80;;;;;;5061309;28;20036;-75
2022/08/04 04:16:17;;;;;;;2.67;1.17;;;21.60;92.70;;;;;;5045734;28;20100;-75
2022/08/04 04:19:35;;;;;;;2.90;1.20;;;21.50;92.70;;;;;;5038711;28;20017;-74
2022/08/04 04:22:28;;;;;;;3.80;1.35;;;21.50;92.70;;;;;;5059547;28;20029;-74
2022/08/04 04:25:15;;;;;;;2.63;1.35;;;21.50;92.70;;;;;;5048380;28;20108;-75
2022/08/04 04:28:10;;;;;;;2.15;1.27;;;21.50;92.80;;;;;;5055192;28;20021;-74
2022/08/04 04:31:01;;;;;;;2.92;1.40;;;21.50;92.80;;;;;;5045596;28;20115;-75
2022/08/04 04:33:57;;;;;;;2.67;1.40;;;21.50;92.80;;;;;;5036004;28;20023;-75
2022/08/04 04:36:57;;;;;;;2.70;1.38;;;21.50;92.80;;;;;;5059649;28;20098;-75
2022/08/04 04:39:41;;;;;;;2.25;1.17;;;21.50;92.90;;;;;;5055900;28;20032;-74
2022/08/04 04:42:22;;;;;;;2.65;1.33;;;21.40;92.90;;;;;;5053362;28;20151;-75
2022/08/04 04:45:09;;;;;;;2.70;1.40;;;21.40;93.10;;;;;;5054246;28;20405;-74
2022/08/04 04:47:53;;;;;;;3.70;1.55;;;21.40;92.90;;;;;;5054455;28;20029;-74
2022/08/04 04:50:27;;;;;;;2.92;1.42;;;21.40;92.90;;;;;;5059358;28;20052;-75
2022/08/04 04:53:09;;;;;;;3.17;1.42;;;21.40;92.90;;;;;;5044780;28;20017;-76
2022/08/04 04:55:50;;;;;;;2.03;1.27;;;21.50;92.90;;;;;;5035253;28;20029;-76
2022/08/04 04:58:18;;;;;;;3.58;1.30;;;21.50;92.90;;;;;;5053871;28;20017;-75
2022/08/04 05:00:56;;;;;;;3.72;1.45;;;21.50;92.80;;;;;;5034579;28;20035;-76
2022/08/04 05:03:59;;;;;;;3.63;1.55;;;21.50;92.80;;;;;;5047666;28;20375;-74
2022/08/04 05:06:39;;;;;;;2.78;1.50;;;21.50;92.70;;;;;;5052557;28;20021;-72
2022/08/04 05:09:34;;;;;;;3.13;1.48;;;21.50;92.70;;;;;;5051020;28;20017;-73
2022/08/04 05:12:08;;;;;;;2.70;1.20;;;21.50;92.70;;;;;;5039512;28;20405;-72
2022/08/04 05:14:46;;;;;;;3.00;1.30;;;21.50;92.70;;;;;;5050598;28;20021;-72
2022/08/04 05:17:20;;;;;;;1.90;1.33;;;21.50;92.70;;;;;;5041140;28;20468;-72
2022/08/04 05:19:55;;;;;;;2.45;1.30;;;21.50;92.80;;;;;;5053052;28;20032;-72
2022/08/04 05:22:38;;;;;;;2.97;1.30;;;21.50;92.80;;;;;;5050009;28;20612;-74
2022/08/04 05:25:11;;;;;;;2.05;1.45;;;21.50;92.80;;;;;;5033886;28;20032;-74
2022/08/04 05:27:42;;;;;;;2.25;1.33;;;21.50;92.80;;;;;;5033827;28;20033;-72
2022/08/04 05:30:09;;;;;;;;;;;21.50;92.80;;;;;;5051854;28;20029;-72
2022/08/04 05:32:42;;;;;;;3.75;1.55;;;21.50;92.80;;;;;;5043808;28;19913;-75
2022/08/04 05:35:10;;;;;;;4.13;1.60;;;21.50;92.80;;;;;;5055787;28;20025;-75
2022/08/04 05:37:39;;;;;;;3.17;1.58;;;21.50;92.80;;;;;;5032075;28;20449;-79
2022/08/04 05:40:07;;;;;;;2.80;1.20;;;21.50;92.80;;;;;;5059611;28;20329;-75
2022/08/04 05:42:36;;;;;;;2.47;1.23;;;21.40;92.80;;;;;;5054492;28;20543;-75
2022/08/04 05:45:03;;;;;;;3.40;1.48;;;21.50;92.80;;;;;;5032548;28;20077;-75
2022/08/04 05:47:31;;;;;;;2.80;1.50;;;21.50;92.70;;;;;;5050904;28;20452;-75
2022/08/04 05:49:58;;;;;;;2.83;1.23;;;21.50;92.70;;;;;;5054756;28;20098;-75
2022/08/04 05:52:25;;;;;;;3.50;1.70;;;21.50;92.60;;;;;;5034235;28;20028;-74
2022/08/04 05:54:51;;;;;;;3.15;1.40;;;21.60;92.60;;;;;;5039459;28;20021;-75
2022/08/04 05:57:18;;;;;;;3.80;1.48;;;21.60;92.60;;;;;;5055058;28;20618;-75
2022/08/04 05:59:48;;;;;;;2.38;1.35;;;21.60;92.60;;;;;;5051488;28;20032;-75
2022/08/04 06:02:16;;;;;;;2.33;1.30;;;21.50;92.60;;;;;;5046834;28;20489;-76
2022/08/04 06:04:45;;;;;;;2.47;1.27;;;21.60;92.60;;;;;;5051266;28;20493;-76
2022/08/04 06:07:12;;;;;;;3.30;1.58;;;21.50;92.60;;;;;;5050832;28;20044;-75
2022/08/04 06:09:39;;;;;;;3.35;1.42;;;21.60;92.60;;;;;;5050921;28;20021;-75
2022/08/04 06:12:18;;;;;;;3.00;1.40;;;21.60;92.60;;;;;;5050510;28;20128;-74
2022/08/04 06:14:45;;;;;;;2.72;1.38;;;21.50;92.60;;;;;;5051802;28;20020;-74
2022/08/04 06:17:18;;;;;;;3.28;1.50;;;21.50;92.60;;;;;;5051470;28;20115;-75
2022/08/04 06:19:44;;;;;;;4.82;1.55;;;21.50;92.60;;;;;;5050782;28;20049;-75
2022/08/04 06:22:11;;;;;;;3.22;1.45;;;21.50;92.60;;;;;;5024237;28;20414;-76
2022/08/04 06:24:39;;;;;;;3.03;1.48;;;21.50;92.50;;;;;;5047655;28;20024;-73
2022/08/04 06:27:06;;;;;;;4.35;1.75;;;21.50;92.50;;;;;;5059032;28;20052;-74
2022/08/04 06:29:40;;;;;;;3.80;1.50;;;21.50;92.50;;;;;;5050225;28;20078;-73
2022/08/04 06:32:22;;;;;;;2.88;1.27;;;21.50;92.60;;;;;;5049862;28;20043;-74
2022/08/04 06:34:54;;;;;;;6.03;1.60;;;21.60;92.60;;;;;;5012464;28;20079;-74
2022/08/04 06:37:22;;;;;;;4.18;1.33;;;21.60;92.60;;;;;;5029365;28;20024;-73
2022/08/04 06:39:48;;;;;;;4.68;1.35;;;21.60;92.50;;;;;;5029124;28;20036;-73
2022/08/04 06:42:16;;;;;;;6.18;1.60;;;21.70;92.40;;;;;;5046352;28;20028;-74
2022/08/04 06:44:45;;;;;;;3.30;1.63;;;21.70;92.30;;;;;;5049229;28;20524;-73
2022/08/04 06:47:11;;;;;;;5.00;1.60;;;21.70;92.20;;;;;;5049731;28;20029;-73
2022/08/04 06:49:39;;;;;;;4.47;1.52;;;21.70;92.20;;;;;;5032018;28;20029;-74
2022/08/04 06:52:05;;;;;;;4.07;1.48;;;21.70;92.20;;;;;;5032516;28;20028;-73
2022/08/04 06:54:30;;;;;;;6.03;1.70;;;21.70;92.20;;;;;;5031527;28;20021;-74
2022/08/04 06:56:57;;;;;;;5.32;1.50;;;21.70;92.20;;;;;;5031221;28;20036;-73
2022/08/04 06:59:24;;;;;;;4.78;1.38;;;21.70;92.20;;;;;;5032136;28;20021;-74
2022/08/04 07:01:51;;;;;;;4.55;1.90;;;21.70;92.20;;;;;;5050052;28;20053;-73
2022/08/04 07:04:17;;;;;;;4.15;1.55;;;21.80;92.20;;;;;;5050127;28;20571;-74
2022/08/04 07:06:43;;;;;;;3.55;1.50;;;21.80;92.20;;;;;;5050749;28;20039;-74
2022/08/04 07:09:09;;;;;;;4.03;1.55;;;21.70;92.10;;;;;;5050923;28;20401;-73
2022/08/04 07:11:35;;;;;;;6.13;1.80;;;21.80;92.10;;;;;;5050637;28;20452;-74
2022/08/04 07:14:02;;;;;;;3.72;1.42;;;21.80;92.10;;;;;;5050750;28;20108;-73
2022/08/04 07:16:29;;;;;;;3.25;1.45;;;21.80;92.10;;;;;;5050974;28;20115;-74
2022/08/04 07:18:55;;;;;;;5.05;1.60;;;21.80;92.10;;;;;;5051103;28;20099;-73
2022/08/04 07:21:22;;;;;;;5.85;1.80;;;21.80;92.10;;;;;;5032678;28;20112;-74
2022/08/04 07:23:48;;;;;;;4.68;1.85;;;21.80;92.10;;;;;;5050663;28;20394;-74
2022/08/04 07:26:16;;;;;;;4.65;1.63;;;21.90;92.10;;;;;;5051060;28;20122;-74
2022/08/04 07:28:41;;;;;;;4.50;1.67;;;21.90;92.00;;;;;;5050594;28;20025;-74
2022/08/04 07:31:10;;;;;;;3.95;1.60;;;21.90;91.80;;;;;;5032520;28;20501;-74
2022/08/04 07:33:37;;;;;;;3.10;1.40;;;22.00;91.80;;;;;;5054873;28;20029;-73
2022/08/04 07:36:03;;;;;;;3.45;1.63;;;22.00;91.70;;;;;;5036607;28;20028;-73
2022/08/04 07:38:28;;;;;;;4.32;1.42;;;22.00;91.70;;;;;;5054329;28;20017;-74
2022/08/04 07:40:55;;;;;;;3.92;1.58;;;22.00;91.60;;;;;;5036212;28;20115;-72
2022/08/04 07:43:21;;;;;;;5.82;1.55;;;22.00;91.70;;;;;;5054600;28;20024;-74
2022/08/04 07:45:47;;;;;;;3.03;1.50;;;22.00;91.70;;;;;;5054388;28;20055;-73
2022/08/04 07:48:14;;;;;;;3.95;1.60;;;22.00;91.60;;;;;;5055072;28;20048;-73
2022/08/04 07:50:42;;;;;;;3.65;1.70;;;22.10;91.70;;;;;;5053893;28;20067;-73
2022/08/04 07:53:08;;;;;;;3.33;1.50;;;22.10;91.60;;;;;;5054407;28;20472;-73
2022/08/04 07:55:34;;;;;;;4.10;1.60;;;22.10;91.50;;;;;;5054121;28;20512;-74
2022/08/04 07:57:59;;;;;;;3.45;1.80;;;22.10;91.60;;;;;;5051726;28;20029;-75
2022/08/04 08:00:25;;;;;;;4.22;1.80;;;22.10;91.60;;;;;;5031724;28;20084;-73
2022/08/04 08:02:53;;;;;;;4.85;1.70;;;22.10;91.50;;;;;;5036067;28;20431;-75
2022/08/04 08:05:20;;;;;;;3.97;1.80;;;22.20;91.60;;;;;;5032772;28;20064;-74
2022/08/04 08:07:50;;;;;;;4.18;1.98;;;22.20;91.60;;;;;;5045312;28;20025;-74
2022/08/04 08:10:15;;;;;;;3.47;1.77;;;22.20;91.60;;;;;;5055600;28;20021;-74
2022/08/04 08:12:42;;;;;;;4.50;1.83;;;22.20;91.50;;;;;;5052246;28;20025;-74
2022/08/04 08:15:11;;;;;;;3.60;1.80;;;22.30;91.50;;;;;;5053525;28;20385;-75
2022/08/04 08:17:37;;;;;;;4.22;1.77;;;22.30;91.40;;;;;;5036123;28;20021;-74
2022/08/04 08:20:05;;;;;;;3.88;1.90;;;22.30;91.30;;;;;;5053524;28;20457;-74
2022/08/04 08:22:31;;;;;;;3.75;1.90;;;22.40;91.20;;;;;;5053611;28;20087;-74
2022/08/04 08:24:56;;;;;;;3.88;1.65;;;22.40;91.10;;;;;;5053818;28;20041;-75
2022/08/04 08:27:22;;;;;;;3.65;1.80;;;22.40;91.00;;;;;;5035683;28;20032;-74
2022/08/04 08:29:48;;;;;;;3.55;1.85;;;22.40;91.00;;;;;;5053397;28;20056;-74
2022/08/04 08:32:14;;;;;;;4.18;1.90;;;22.40;91.10;;;;;;5050058;28;20048;-75
2022/08/04 08:34:41;;;;;;;2.80;1.58;;;22.40;91.30;;;;;;5046191;28;20021;-74
2022/08/04 08:37:25;;;;;;;2.65;1.60;;;22.40;91.00;;;;;;5032897;28;20021;-74
2022/08/04 08:40:20;;;;;;;3.83;1.88;;;22.50;91.10;;;;;;5064804;28;20021;-74
2022/08/04 08:43:04;;;;;;;5.45;2.10;;;22.50;91.10;;;;;;5053997;28;20024;-74
2022/08/04 08:45:32;;;;;;;3.67;1.98;;;22.50;91.10;;;;;;5073189;28;20028;-75
2022/08/04 08:48:41;;;;;;;4.47;1.90;;;22.50;91.20;;;;;;5054946;28;20028;-75
2022/08/04 08:51:13;;;;;;;3.33;1.80;;;22.50;91.20;;;;;;5063602;28;20025;-74
2022/08/04 08:54:13;;;;;;;3.90;1.80;;;22.50;91.10;;;;;;5034991;28;20108;-74
2022/08/04 08:57:03;;;;;;;3.63;1.70;;;22.50;91.20;;;;;;5052755;28;20032;-74
2022/08/04 08:59:42;;;;;;;3.88;1.90;;;22.50;91.20;;;;;;5052720;28;20021;-74
2022/08/04 09:02:43;;;;;;;3.38;1.70;;;22.60;91.10;;;;;;5052600;28;20028;-75
2022/08/04 09:05:26;;;;;;;3.92;2.00;;;22.60;91.00;;;;;;5033744;28;20025;-76
2022/08/04 09:08:18;;;;;;;4.10;1.95;;;22.60;90.90;;;;;;5049058;28;20451;-75
2022/08/04 09:10:47;;;;;;;3.03;1.77;;;22.70;90.80;;;;;;5051688;28;20039;-75
2022/08/04 09:13:20;;;;;;;3.60;1.92;;;22.70;90.80;;;;;;5034716;28;20108;-75
2022/08/04 09:16:03;;;;;;;3.80;1.88;;;22.70;90.80;;;;;;5034179;28;20028;-75
2022/08/04 09:18:40;;;;;;;4.38;2.00;;;22.70;90.60;;;;;;5034846;28;20102;-75
2022/08/04 09:21:16;;;;;;;4.70;2.00;;;22.70;90.70;;;;;;5051842;28;20511;-76
2022/08/04 09:23:59;;;;;;;3.20;1.70;;;22.70;90.70;;;;;;5035092;28;20124;-75
2022/08/04 09:26:54;;;;;;;3.63;1.77;;;22.70;90.70;;;;;;5052749;28;20124;-75
2022/08/04 09:29:41;;;;;;;3.92;2.15;;;22.70;90.80;;;;;;5052751;28;20028;-75
2022/08/04 09:32:37;;;;;;;3.33;1.80;;;22.70;90.80;;;;;;5041402;28;20102;-76
2022/08/04 09:35:19;;;;;;;3.60;2.00;;;22.70;91.00;;;;;;5052762;28;20024;-75
2022/08/04 09:38:18;;;;;;;3.42;1.70;;;22.80;90.80;;;;;;5034992;28;20100;-76
2022/08/04 09:40:50;;;;;;;3.35;1.92;;;22.80;90.80;;;;;;5034426;28;20024;-75
2022/08/04 09:43:34;;;;;;;4.45;2.17;;;22.80;90.80;;;;;;5052392;28;20036;-75
2022/08/04 09:46:07;;;;;;;3.50;1.77;;;22.80;90.80;;;;;;5052361;28;20021;-76
2022/08/04 09:48:52;;;;;;;2.55;1.58;;;22.80;90.70;;;;;;5052642;28;20021;-75
2022/08/04 09:51:45;;;;;;;3.40;1.90;;;22.80;90.70;;;;;;5052506;28;20033;-76
2022/08/04 09:54:27;;;;;;;3.85;1.98;;;22.80;90.70;;;;;;5052489;28;20028;-76
2022/08/04 09:57:02;;;;;;;3.78;1.98;;;22.90;90.60;;;;;;5052408;28;20374;-75
2022/08/04 10:00:03;;;;;;;3.80;1.88;;;22.90;90.60;;;;;;5052243;28;20025;-75
2022/08/04 10:02:35;;;;;;;3.75;1.70;;;22.90;90.50;;;;;;5052059;28;20504;-75
2022/08/04 10:05:03;;;;;;;3.28;1.65;;;22.90;90.40;;;;;;5052182;28;20067;-75
2022/08/04 10:07:48;;;;;;;3.13;1.70;;;22.90;90.50;;;;;;5051895;28;20063;-75
2022/08/04 10:10:32;;;;;;;3.47;1.88;;;22.90;90.50;;;;;;5051633;28;20025;-75
2022/08/04 10:13:36;;;;;;;3.63;1.70;;;22.90;90.60;;;;;;5051862;28;20048;-75
2022/08/04 10:16:18;;;;;;;3.83;1.80;;;22.90;90.60;;;;;;5051938;28;20074;-76
2022/08/04 10:19:22;;;;;;;2.90;1.63;;;22.90;90.60;;;;;;5051917;28;20103;-75
2022/08/04 10:22:17;;;;;;;2.80;1.75;;;22.90;90.70;;;;;;5051467;28;20029;-75
2022/08/04 10:24:58;;;;;;;2.58;1.58;;;22.90;90.70;;;;;;5034055;28;20021;-75
2022/08/04 10:27:31;;;;;;;2.83;1.58;;;22.90;90.60;;;;;;5051746;28;20692;-76
2022/08/04 10:30:03;;;;;;;2.78;1.58;;;22.90;90.70;;;;;;5051224;28;20119;-76
2022/08/04 10:32:33;;;;;;;;;;;22.90;90.70;;;;;;5051963;28;20029;-75
2022/08/04 10:35:09;;;;;;;4.20;1.77;;;22.90;90.60;;;;;;5033729;28;19905;-76
2022/08/04 10:37:50;;;;;;;3.08;1.45;;;22.90;90.70;;;;;;5034061;28;20512;-76
2022/08/04 10:40:44;;;;;;;2.95;1.88;;;22.90;90.70;;;;;;5033380;28;20032;-75
2022/08/04 10:43:34;;;;;;;3.20;1.60;;;22.90;90.60;;;;;;5033648;28;20028;-75
2022/08/04 10:46:09;;;;;;;3.45;1.48;;;23.00;90.50;;;;;;5033640;28;20060;-75
2022/08/04 10:49:31;;;;;;;4.25;1.70;;;23.00;90.50;;;;;;5033563;28;20036;-75
2022/08/04 10:52:16;;;;;;;2.33;1.42;;;23.00;90.30;;;;;;4989527;28;20038;-76
2022/08/04 10:54:52;;;;;;;3.03;1.65;;;23.00;90.30;;;;;;4986394;28;20442;-75
2022/08/04 10:57:29;;;;;;;3.05;1.50;;;23.00;90.30;;;;;;5037429;28;20048;-75
2022/08/04 11:00:11;;;;;;;1.98;1.25;;;23.00;90.40;;;;;;5050393;28;20100;-76
2022/08/04 11:03:11;;;;;;;3.63;1.70;;;23.00;90.50;;;;;;5033050;28;20060;-75
2022/08/04 11:05:58;;;;;;;2.83;1.65;;;22.90;90.50;;;;;;5050558;28;20029;-75
2022/08/04 11:08:33;;;;;;;2.83;1.50;;;22.90;90.60;;;;;;5050894;28;20033;-75
2022/08/04 11:11:20;;;;;;;3.53;1.40;;;22.90;90.60;;;;;;5032710;28;20067;-76
2022/08/04 11:13:51;;;;;;;3.05;1.80;;;22.90;90.60;;;;;;5070805;28;20451;-76
2022/08/04 11:16:25;;;;;;;2.58;1.60;;;22.90;90.60;;;;;;5052414;28;20024;-75
2022/08/04 11:19:16;;;;;;;2.95;1.50;;;22.90;90.60;;;;;;5070977;28;20449;-75
2022/08/04 11:21:54;;;;;;;2.85;1.50;;;22.90;90.60;;;;;;5070336;28;20021;-75
2022/08/04 11:24:33;;;;;;;2.03;1.40;;;22.90;90.60;;;;;;5070539;28;20028;-75
2022/08/04 11:27:02;;;;;;;2.88;1.55;;;22.90;90.60;;;;;;5071894;28;20562;-75
2022/08/04 11:29:39;;;;;;;2.67;1.58;;;23.00;90.60;;;;;;5070474;28;20028;-75
2022/08/04 11:32:12;;;;;;;2.17;1.60;;;23.00;90.50;;;;;;5070023;28;20092;-75
2022/08/04 11:34:45;;;;;;;2.67;1.60;;;23.00;90.40;;;;;;5052604;28;20098;-75
2022/08/04 11:37:30;;;;;;;2.58;1.58;;;23.00;90.40;;;;;;5070260;28;20028;-75
2022/08/04 11:40:02;;;;;;;2.72;1.35;;;23.00;90.60;;;;;;5052037;28;20485;-75
2022/08/04 11:42:40;;;;;;;2.72;1.40;;;23.00;90.30;;;;;;5070253;28;20374;-77
2022/08/04 11:45:07;;;;;;;3.17;1.70;;;23.00;90.30;;;;;;5052260;28;20447;-75
2022/08/04 11:47:46;;;;;;;2.45;1.63;;;23.00;90.40;;;;;;5051692;28;20108;-75
2022/08/04 11:50:28;;;;;;;3.40;1.50;;;22.90;90.40;;;;;;5049986;28;20029;-75
2022/08/04 11:52:55;;;;;;;2.67;1.65;;;22.90;90.40;;;;;;5032914;28;20033;-74
2022/08/04 11:55:23;;;;;;;2.65;1.55;;;22.90;90.50;;;;;;5050138;28;20425;-75
2022/08/04 11:57:49;;;;;;;2.20;1.50;;;22.90;90.60;;;;;;5050363;28;20474;-75
2022/08/04 12:00:16;;;;;;;3.22;1.60;;;22.90;90.60;;;;;;5049093;28;20029;-75
2022/08/04 12:03:00;;;;;;;2.83;1.70;;;22.90;90.60;;;;;;5032409;28;20031;-76
2022/08/04 12:05:42;;;;;;;2.30;1.50;;;22.90;90.60;;;;;;5032203;28;20029;-75
2022/08/04 12:08:27;;;;;;;2.55;1.45;;;22.90;90.70;;;;;;5050479;28;20028;-76
2022/08/04 12:11:33;;;;;;;2.60;1.60;;;22.90;90.70;;;;;;5050299;28;20021;-74
2022/08/04 12:14:25;;;;;;;3.45;1.63;;;22.90;90.80;;;;;;5050433;28;20508;-75
2022/08/04 12:17:02;;;;;;;2.70;1.52;;;22.90;90.70;;;;;;5032545;28;20025;-75
2022/08/04 12:19:50;;;;;;;3.03;1.73;;;22.90;90.70;;;;;;5054022;28;20028;-75
2022/08/04 12:22:23;;;;;;;2.58;1.50;;;22.90;90.60;;;;;;5053914;28;20100;-75
2022/08/04 12:25:02;;;;;;;2.70;1.48;;;22.90;90.60;;;;;;5036146;28;20111;-75
2022/08/04 12:27:45;;;;;;;2.33;1.37;;;22.80;90.50;;;;;;5036369;28;20029;-75
2022/08/04 12:30:11;;;;;;;3.25;1.60;;;22.90;90.40;;;;;;5035532;28;20040;-75
2022/08/04 12:33:03;;;;;;;3.08;1.60;;;22.90;90.50;;;;;;5050729;28;20561;-76
2022/08/04 12:35:37;;;;;;;2.08;1.38;;;22.90;90.50;;;;;;5030245;28;20033;-75
2022/08/04 12:38:10;;;;;;;2.45;1.42;;;22.90;90.60;;;;;;5056988;28;20025;-75
2022/08/04 12:40:49;;;;;;;2.58;1.50;;;22.90;90.60;;;;;;5056062;28;20506;-75
2022/08/04 12:43:23;;;;;;;3.78;1.80;;;22.80;90.60;;;;;;5051880;28;20021;-75
2022/08/04 12:45:52;;;;;;;2.58;1.60;;;22.80;90.70;;;;;;5035461;28;20036;-75
2022/08/04 12:48:18;;;;;;;2.58;1.63;;;22.80;90.70;;;;;;5037736;28;20043;-75
2022/08/04 12:50:52;;;;;;;2.15;1.42;;;22.80;90.80;;;;;;5042351;28;20024;-75
2022/08/04 12:53:22;;;;;;;6.00;1.60;;;22.80;91.00;;;;;;5052026;28;20493;-74
2022/08/04 12:55:50;;;;;;;6.43;2.08;;;22.70;90.90;;;;;;5035205;28;20029;-74
2022/08/04 12:58:22;;;;;;;6.75;1.88;;;22.70;90.90;;;;;;5052301;28;20028;-75
2022/08/04 13:01:21;;;;;;;5.25;1.80;;;22.70;90.90;;;;;;5052920;28;20547;-75
2022/08/04 13:03:56;;;;;;;6.18;1.80;;;22.70;91.00;;;;;;5053135;28;20025;-74
2022/08/04 13:06:41;;;;;;;6.78;1.88;;;22.70;91.00;;;;;;5034928;28;20032;-75
2022/08/04 13:09:16;;;;;;;5.07;1.65;;;22.80;91.00;;;;;;5052794;28;20425;-75
2022/08/04 13:11:48;;;;;;;8.05;2.20;;;22.80;90.90;;;;;;5052594;28;20083;-75
2022/08/04 13:14:15;;;;;;;5.85;1.60;;;22.80;90.80;;;;;;5052639;28;20017;-75
2022/08/04 13:16:41;;;;;;;7.40;2.10;;;22.80;90.80;;;;;;5053122;28;20020;-76
2022/08/04 13:19:08;;;;;;;4.85;1.70;;;22.80;90.80;;;;;;5053076;28;20033;-75
2022/08/04 13:21:39;;;;;;;4.47;1.73;;;22.70;90.80;;;;;;5052741;28;20032;-74
2022/08/04 13:24:10;;;;;;;6.18;1.83;;;22.70;90.80;;;;;;5052846;28;20021;-75
2022/08/04 13:26:37;;;;;;;4.53;2.03;;;22.70;90.90;;;;;;5035267;28;20032;-75
2022/08/04 13:29:06;;;;;;;5.47;1.77;;;22.70;90.90;;;;;;5034199;28;20070;-76
2022/08/04 13:31:34;;;;;;;5.00;1.70;;;22.70;90.90;;;;;;5034473;28;20094;-75
2022/08/04 13:34:06;;;;;;;5.75;1.90;;;22.70;91.00;;;;;;5034551;28;20028;-75
2022/08/04 13:36:33;;;;;;;5.88;1.80;;;22.60;91.00;;;;;;5052701;28;20021;-75
2022/08/04 13:39:05;;;;;;;5.65;2.00;;;22.60;91.10;;;;;;5034492;28;20035;-74
2022/08/04 13:41:33;;;;;;;4.53;1.85;;;22.60;91.10;;;;;;5051995;28;20028;-72